ADDS METAR Data INFO
IDs: Format: Raw Decoded Include TAF

Data at: 2009 UTC 18 Jul 2018

KIKT 182000Z AUTO 28010KT 10SM CLR 28/23 A3002 RMK A01
KIKT 181940Z AUTO VRB04G11KT 9SM FEW055 FEW065 27/23 A3003 RMK A01
KIKT 181920Z AUTO 28012KT 8SM SCT055 SCT065 26/24 A3004 RMK A01
KIKT 181900Z AUTO 27007KT 6SM BR CLR 26/24 A3005 RMK A01 P0005
KIKT 181840Z AUTO 25008KT 6SM BR FEW022 FEW044 FEW050 26/24 A3005 RMK A01
KIKT 181820Z AUTO VRB05KT 2SM BR FEW015 SCT040 BKN050 25/23 A3006 RMK A01
KIKT 181800Z AUTO VRB04KT 3SM BR SCT040 SCT050 25/23 A3006 RMK A01 P0015
KIKT 181740Z AUTO VRB04KT 2SM BR FEW026 SCT032 BKN043 25/23 A3007 RMK A01
KIKT 181720Z AUTO 31007KT 1 1/2SM BR SCT014 BKN029 OVC050 25/23 A3007 RMK A01
KIKT 181700Z AUTO 30007G15KT 270V330 2SM BR FEW014 SCT032 BKN037 25/23 A3009 RMK A01 P0014
KIKT 181640Z AUTO 31007G13KT 280V350 2 1/2SM BR BKN031 BKN036 OVC070 25/23 A3008 RMK A01
KIKT 181620Z AUTO 30009KT 270V330 2 1/2SM BR BKN030 BKN042 BKN060 25/23 A3007 RMK A01
KIKT 181600Z AUTO 32008G17KT 280V340 1/2SM BR BKN006 BKN018 OVC026 25/23 A3008 RMK A01 P0043
KIKT 181540Z AUTO 31010G24KT 280V350 3/4SM BR BKN006 BKN019 OVC026 25/23 A3008 RMK A01
KIKT 181520Z AUTO 34008G13KT 280V050 7SM FEW020 OVC028 26/23 A3006 RMK A01
KIKT 181500Z AUTO VRB04KT 8SM SCT030 BKN041 BKN046 26/23 A3006 RMK A01 P0011
KIKT 181440Z AUTO VRB05KT 2SM HZ FEW033 BKN043 BKN055 25/22 A3006 RMK A01
KIKT 181420Z AUTO 00000KT 5SM HZ SCT044 SCT055 SCT085 26/22 A3007 RMK A01
KIKT 181400Z AUTO VRB03G16KT 2SM BR FEW036 FEW041 FEW047 26/24 A3005 RMK A01 P0015
KIKT 181340Z AUTO 28009KT 1 1/2SM BR SCT027 BKN036 OVC047 26/24 A3005 RMK A01
KIKT 181320Z AUTO 28009KT 2SM HZ FEW027 BKN034 OVC050 25/23 A3005 RMK A01
KIKT 181300Z AUTO 30009G18KT 270V340 2SM BR SCT032 BKN037 OVC080 25/23 A3006 RMK A01 P0033
KIKT 181240Z AUTO VRB05G13KT 3SM BR BKN029 BKN045 BKN055 25/23 A3004 RMK A01
KIKT 181220Z AUTO 29012G18KT 250V310 1/4SM FG BKN004 OVC029 25/23 A3005 RMK A01
KIKT 181200Z AUTO 31011G21KT 1 1/4SM HZ SCT004 BKN019 OVC042 26/23 A3005 RMK A01 P0002 VIS 3/4V2 1/2
KIKT 181140Z AUTO 31007G21KT 270V060 9SM SCT019 SCT026 SCT044 29/24 A3003 RMK A01
KIKT 181120Z AUTO VRB12G19KT 10SM SCT021 SCT036 SCT044 29/25 A3001 RMK A01
KIKT 181100Z AUTO 23011G19KT 130V250 10SM SCT021 SCT035 BKN042 29/25 A3001 RMK A01
KIKT 181040Z AUTO 25014KT 10SM SCT021 BKN038 BKN049 29/25 A3002 RMK A01
KIKT 181020Z AUTO 27011G19KT 10SM SCT019 SCT033 BKN042 29/25 A3002 RMK A01
KIKT 181000Z AUTO 25012KT 10SM FEW019 SCT037 BKN042 29/24 A3002 RMK A01
KIKT 180940Z AUTO 28012KT 10SM FEW023 FEW029 SCT039 29/24 A3001 RMK A01
KIKT 180920Z AUTO 27012KT 10SM FEW023 SCT033 SCT039 29/24 A3001 RMK A01
KIKT 180900Z AUTO 27010G19KT 10SM SCT019 BKN025 BKN034 29/24 A3001 RMK A01
KIKT 180840Z AUTO 25011G17KT 10SM BKN019 BKN024 BKN038 29/24 A3001 RMK A01
KIKT 180820Z AUTO 24013KT 10SM SCT018 BKN030 BKN042 29/25 A3002 RMK A01
KIKT 180800Z AUTO 24014KT 10SM FEW017 SCT027 BKN032 28/25 A3002 RMK A01
KIKT 180740Z AUTO 24013KT 10SM SCT029 SCT036 BKN046 28/24 A3002 RMK A01
KIKT 180720Z AUTO 25014KT 10SM FEW018 FEW033 OVC100 29/24 A3002 RMK A01
KIKT 180700Z AUTO 24012KT 10SM OVC095 29/24 A3003 RMK A01
KIKT 180640Z AUTO 25012KT 10SM OVC095 29/24 A3004 RMK A01
KIKT 180620Z AUTO 26010G16KT 10SM OVC090 29/24 A3004 RMK A01
KIKT 180600Z AUTO 27009KT 10SM FEW022 OVC090 29/24 A3005 RMK A01
KIKT 180540Z AUTO 28009KT 10SM SCT022 BKN027 OVC090 29/24 A3005 RMK A01
KIKT 180520Z AUTO 28011KT 10SM SCT025 BKN031 29/24 A3005 RMK A01
KIKT 180500Z AUTO 28010KT 10SM FEW022 SCT028 BKN033 29/24 A3005 RMK A01
KIKT 180440Z AUTO 28009KT 10SM SCT030 SCT038 29/24 A3005 RMK A01
KIKT 180420Z AUTO 28011KT 10SM FEW085 30/23 A3005 RMK A01
KIKT 180400Z AUTO 27010KT 10SM FEW042 BKN085 30/24 A3005 RMK A01
KIKT 180340Z AUTO 25010KT 10SM FEW041 FEW048 SCT080 29/23 A3005 RMK A01
KIKT 180320Z AUTO VRB07G12KT 10SM FEW047 SCT080 28/24 A3006 RMK A01
KIKT 180300Z AUTO VRB07G13KT 10SM FEW045 FEW055 28/24 A3005 RMK A01
KIKT 180240Z AUTO 22007KT 100V240 10SM FEW038 SCT047 SCT055 28/23 A3005 RMK A01
KIKT 180220Z AUTO 22006G11KT 10SM SCT044 SCT055 28/23 A3005 RMK A01
KIKT 180200Z AUTO 23008KT 080V250 10SM SCT041 SCT049 28/23 A3006 RMK A01
KIKT 180140Z AUTO 23007KT 210V320 10SM FEW032 SCT041 BKN095 28/24 A3006 RMK A01
KIKT 180120Z AUTO VRB05KT 10SM FEW040 SCT046 28/23 A3006 RMK A01
KIKT 180100Z AUTO VRB04KT 10SM CLR 29/23 A3005 RMK A01
KIKT 180040Z AUTO VRB06KT 10SM CLR 29/23 A3005 RMK A01
KIKT 180020Z AUTO 26007KT 10SM CLR 29/23 A3006 RMK A01
KIKT 180000Z AUTO 28008KT 10SM FEW055 29/23 A3006 RMK A01
KIKT 172340Z AUTO 27008KT 230V300 10SM FEW065 29/23 A3005 RMK A01
KIKT 172320Z AUTO 28008KT 9SM FEW065 29/23 A3006 RMK A01
KIKT 172300Z AUTO VRB05G10KT 10SM CLR 29/23 A3006 RMK A01
KIKT 172240Z AUTO VRB05G11KT 10SM CLR 29/23 A3006 RMK A01
KIKT 172220Z AUTO VRB06G11KT 10SM CLR 29/23 A3006 RMK A01
KIKT 172200Z AUTO VRB03KT 9SM CLR 29/23 A3007 RMK A01
KIKT 172140Z AUTO VRB04G11KT 8SM CLR 29/23 A3007 RMK A01
KIKT 172120Z AUTO VRB05KT 9SM CLR 29/23 A3007 RMK A01
KIKT 172100Z AUTO 31007KT 290V350 10SM CLR 29/23 A3007 RMK A01
KIKT 172040Z AUTO VRB05KT 10SM CLR 29/23 A3007 RMK A01
KIKT 172020Z AUTO VRB04KT 10SM CLR 29/23 A3007 RMK A01
KIKT 172000Z AUTO VRB05G10KT 10SM CLR 29/23 A3007 RMK A01
KIKT 171940Z AUTO VRB06G12KT 10SM CLR 30/23 A3007 RMK A01
KIKT 171920Z AUTO VRB03G10KT 10SM FEW019 FEW046 30/24 A3008 RMK A01
KIKT 171900Z AUTO 30009KT 10SM SCT018 SCT100 29/24 A3009 RMK A01
KIKT 171840Z AUTO VRB06G14KT 10SM SCT018 SCT100 29/24 A3009 RMK A01
KIKT 171820Z AUTO 30010G16KT 10SM FEW020 30/23 A3010 RMK A01
KIKT 171800Z AUTO 30009G17KT 260V320 10SM FEW019 SCT026 SCT034 30/23 A3010 RMK A01
KIKT 171740Z AUTO 30008G17KT 250V350 10SM BKN019 BKN026 BKN033 30/24 A3011 RMK A01
KIKT 171720Z AUTO VRB05G14KT 10SM CLR 30/23 A3011 RMK A01
KIKT 171700Z AUTO 29008G15KT 10SM FEW036 30/22 A3012 RMK A01
KIKT 171640Z AUTO 29009G16KT 270V330 10SM FEW036 29/22 A3011 RMK A01
KIKT 171620Z AUTO 29008G14KT 10SM CLR 29/23 A3011 RMK A01
KIKT 171600Z AUTO 28009KT 10SM CLR 29/24 A3010 RMK A01
KIKT 171540Z AUTO 24009G16KT 180V270 10SM CLR 28/24 A3010 RMK A01
KIKT 171520Z AUTO 24011G17KT 10SM CLR 28/23 A3010 RMK A01
KIKT 171500Z AUTO VRB07G17KT 10SM CLR 28/24 A3010 RMK A01
KIKT 171440Z AUTO 27009KT 10SM CLR 28/24 A3011 RMK A01
KIKT 171420Z AUTO 27009G16KT 10SM CLR 27/24 A3011 RMK A01
KIKT 171400Z AUTO 24012KT 220V030 10SM CLR 26/23 A3012 RMK A01 P0003
KIKT 171340Z AUTO 23009G15KT 120V290 10SM CLR 25/23 A3012 RMK A01
KIKT 171320Z AUTO 23010G16KT 9SM CLR 25/22 A3011 RMK A01
KIKT 171300Z AUTO VRB12KT 10SM FEW038 FEW045 FEW055 25/22 A3010 RMK A01 P0009
KIKT 171240Z AUTO 22005KT 5SM HZ FEW033 SCT040 BKN046 25/22 A3009 RMK A01
KIKT 171220Z AUTO VRB05G15KT 1 1/2SM HZ SCT019 BKN033 OVC060 24/22 A3010 RMK A01
KIKT 171200Z AUTO 29009G18KT 230V330 4SM BR FEW024 BKN038 OVC110 26/23 A3011 RMK A01 P0002
KIKT 171140Z AUTO 31007G16KT 280V340 6SM BR FEW020 BKN030 OVC120 26/23 A3009 RMK A01
KIKT 171120Z AUTO VRB04KT 8SM FEW004 SCT032 BKN050 25/23 A3007 RMK A01
KIKT 171100Z AUTO VRB03G11KT 1 3/4SM HZ BKN004 BKN024 OVC029 26/23 A3008 RMK A01 P0016
KIKT 171040Z AUTO 32007G16KT 290V020 3SM HZ FEW003 BKN022 OVC034 27/24 A3007 RMK A01
KIKT 171020Z AUTO 31011G17KT 260V330 8SM BKN020 BKN027 OVC033 28/24 A3006 RMK A01
KIKT 171000Z AUTO 24010KT 10SM FEW019 SCT026 BKN033 29/24 A3005 RMK A01
KIKT 170940Z AUTO VRB04G11KT 10SM FEW021 SCT028 BKN034 29/24 A3005 RMK A01
KIKT 170920Z AUTO VRB06G13KT 10SM SCT021 SCT031 29/24 A3004 RMK A01
KIKT 170900Z AUTO 23007KT 210V350 10SM FEW023 FEW031 SCT038 29/24 A3004 RMK A01
KIKT 170840Z AUTO VRB06G12KT 10SM SCT021 BKN026 BKN037 29/25 A3004 RMK A01
KIKT 170820Z AUTO VRB04G11KT 10SM FEW021 FEW035 29/24 A3004 RMK A01